sensor_id;sensor_type;location;lat;lon;timestamp;pressure;altitude;pressure_sealevel;temperature;humidity
18819;BME280;9537;45.594;9.294;2023-04-04T00:00:30;99519.91;;;12.32;41.31
18819;BME280;9537;45.594;9.294;2023-04-04T00:01:32;99523.19;;;12.34;40.93
18819;BME280;9537;45.594;9.294;2023-04-04T00:02:34;99523.00;;;12.35;41.04
18819;BME280;9537;45.594;9.294;2023-04-04T00:03:36;99522.72;;;12.30;41.09
18819;BME280;9537;45.594;9.294;2023-04-04T00:04:37;99523.47;;;12.24;41.36
18819;BME280;9537;45.594;9.294;2023-04-04T00:05:39;99522.13;;;12.28;41.43
18819;BME280;9537;45.594;9.294;2023-04-04T00:06:40;99526.84;;;12.33;41.23
18819;BME280;9537;45.594;9.294;2023-04-04T00:07:45;99526.22;;;12.31;41.34
18819;BME280;9537;45.594;9.294;2023-04-04T00:08:48;99526.59;;;12.28;41.23
18819;BME280;9537;45.594;9.294;2023-04-04T00:09:50;99529.03;;;12.29;41.54
18819;BME280;9537;45.594;9.294;2023-04-04T00:10:56;99527.03;;;12.31;41.33
18819;BME280;9537;45.594;9.294;2023-04-04T00:11:58;99523.00;;;12.35;40.91
18819;BME280;9537;45.594;9.294;2023-04-04T00:12:59;99519.78;;;12.40;40.90
18819;BME280;9537;45.594;9.294;2023-04-04T00:14:02;99527.84;;;12.32;41.07
18819;BME280;9537;45.594;9.294;2023-04-04T00:15:06;99528.22;;;12.29;40.83
18819;BME280;9537;45.594;9.294;2023-04-04T00:16:08;99523.75;;;12.29;40.98
18819;BME280;9537;45.594;9.294;2023-04-04T00:17:09;99524.56;;;12.30;40.83
18819;BME280;9537;45.594;9.294;2023-04-04T00:18:11;99521.31;;;12.28;41.06
18819;BME280;9537;45.594;9.294;2023-04-04T00:19:12;99526.78;;;12.26;41.31
18819;BME280;9537;45.594;9.294;2023-04-04T00:20:17;99521.84;;;12.23;41.31
18819;BME280;9537;45.594;9.294;2023-04-04T00:21:18;99524.31;;;12.25;41.00
18819;BME280;9537;45.594;9.294;2023-04-04T00:22:20;99515.31;;;12.19;40.96
18819;BME280;9537;45.594;9.294;2023-04-04T00:23:21;99528.34;;;12.21;40.97
18819;BME280;9537;45.594;9.294;2023-04-04T00:24:24;99521.59;;;12.18;41.31
18819;BME280;9537;45.594;9.294;2023-04-04T00:25:26;99520.22;;;12.22;41.06
18819;BME280;9537;45.594;9.294;2023-04-04T00:26:28;99523.31;;;12.26;40.98
18819;BME280;9537;45.594;9.294;2023-04-04T00:27:29;99526.97;;;12.25;41.25
18819;BME280;9537;45.594;9.294;2023-04-04T00:28:31;99521.69;;;12.25;40.78
18819;BME280;9537;45.594;9.294;2023-04-04T00:29:32;99521.47;;;12.26;41.10
18819;BME280;9537;45.594;9.294;2023-04-04T00:30:34;99523.31;;;12.26;40.90
18819;BME280;9537;45.594;9.294;2023-04-04T00:31:36;99523.47;;;12.24;41.22
18819;BME280;9537;45.594;9.294;2023-04-04T00:32:38;99526.13;;;12.24;41.30
18819;BME280;9537;45.594;9.294;2023-04-04T00:33:39;99525.97;;;12.26;40.95
18819;BME280;9537;45.594;9.294;2023-04-04T00:34:41;99522.66;;;12.24;40.94
18819;BME280;9537;45.594;9.294;2023-04-04T00:35:42;99522.13;;;12.28;41.00
18819;BME280;9537;45.594;9.294;2023-04-04T00:36:44;99529.84;;;12.30;40.64
18819;BME280;9537;45.594;9.294;2023-04-04T00:37:45;99528.59;;;12.26;40.76
18819;BME280;9537;45.594;9.294;2023-04-04T00:38:48;99526.34;;;12.23;40.82
18819;BME280;9537;45.594;9.294;2023-04-04T00:39:50;99524.81;;;12.13;40.80
18819;BME280;9537;45.594;9.294;2023-04-04T00:40:52;99527.69;;;12.18;41.04
18819;BME280;9537;45.594;9.294;2023-04-04T00:41:53;99530.53;;;12.17;40.60
18819;BME280;9537;45.594;9.294;2023-04-04T00:42:56;99535.63;;;12.18;40.65
18819;BME280;9537;45.594;9.294;2023-04-04T00:43:59;99524.44;;;12.16;40.62
18819;BME280;9537;45.594;9.294;2023-04-04T00:45:01;99530.28;;;12.12;40.55
18819;BME280;9537;45.594;9.294;2023-04-04T00:46:02;99534.09;;;12.09;40.59
18819;BME280;9537;45.594;9.294;2023-04-04T00:47:05;99526.91;;;12.03;41.06
18819;BME280;9537;45.594;9.294;2023-04-04T00:48:06;99525.28;;;12.02;41.11
18819;BME280;9537;45.594;9.294;2023-04-04T00:49:08;99520.97;;;12.01;41.05
18819;BME280;9537;45.594;9.294;2023-04-04T00:50:09;99523.63;;;12.01;41.26
18819;BME280;9537;45.594;9.294;2023-04-04T00:51:11;99525.91;;;12.04;41.32
18819;BME280;9537;45.594;9.294;2023-04-04T00:52:12;99527.56;;;12.05;41.25
18819;BME280;9537;45.594;9.294;2023-04-04T00:53:14;99524.09;;;12.05;41.08
18819;BME280;9537;45.594;9.294;2023-04-04T00:54:16;99517.94;;;12.04;41.22
18819;BME280;9537;45.594;9.294;2023-04-04T00:55:19;99527.56;;;12.05;40.95
18819;BME280;9537;45.594;9.294;2023-04-04T00:56:20;99526.09;;;12.03;41.15
18819;BME280;9537;45.594;9.294;2023-04-04T00:57:23;99522.00;;;12.00;41.38
18819;BME280;9537;45.594;9.294;2023-04-04T00:58:24;99524.19;;;11.97;41.55
18819;BME280;9537;45.594;9.294;2023-04-04T00:59:27;99520.34;;;11.99;41.30
18819;BME280;9537;45.594;9.294;2023-04-04T01:00:28;99522.63;;;12.02;41.16
18819;BME280;9537;45.594;9.294;2023-04-04T01:01:31;99518.31;;;12.01;41.07
18819;BME280;9537;45.594;9.294;2023-04-04T01:02:32;99513.41;;;11.98;41.13
18819;BME280;9537;45.594;9.294;2023-04-04T01:03:37;99516.78;;;11.92;41.23
18819;BME280;9537;45.594;9.294;2023-04-04T01:04:39;99518.44;;;11.93;40.95
18819;BME280;9537;45.594;9.294;2023-04-04T01:05:42;99515.16;;;11.91;41.18
18819;BME280;9537;45.594;9.294;2023-04-04T01:06:43;99515.53;;;11.88;41.40
18819;BME280;9537;45.594;9.294;2023-04-04T01:07:45;99502.91;;;11.90;41.10
18819;BME280;9537;45.594;9.294;2023-04-04T01:08:46;99513.88;;;11.87;41.20
18819;BME280;9537;45.594;9.294;2023-04-04T01:09:49;99515.53;;;11.88;41.04
18819;BME280;9537;45.594;9.294;2023-04-04T01:10:52;99512.91;;;11.88;41.47
18819;BME280;9537;45.594;9.294;2023-04-04T01:11:54;99509.59;;;11.86;41.34
18819;BME280;9537;45.594;9.294;2023-04-04T01:12:56;99508.09;;;11.83;41.44
18819;BME280;9537;45.594;9.294;2023-04-04T01:13:58;99508.47;;;11.80;41.35
18819;BME280;9537;45.594;9.294;2023-04-04T01:14:59;99508.47;;;11.80;41.08
18819;BME280;9537;45.594;9.294;2023-04-04T01:16:01;99508.41;;;11.73;41.45
18819;BME280;9537;45.594;9.294;2023-04-04T01:17:04;99512.84;;;11.73;41.55
18819;BME280;9537;45.594;9.294;2023-04-04T01:18:07;99516.50;;;11.72;41.92
18819;BME280;9537;45.594;9.294;2023-04-04T01:19:15;99519.22;;;11.79;41.35
18819;BME280;9537;45.594;9.294;2023-04-04T01:20:21;99510.09;;;11.81;41.16
18819;BME280;9537;45.594;9.294;2023-04-04T01:21:26;99514.97;;;11.78;41.19
18819;BME280;9537;45.594;9.294;2023-04-04T01:22:29;99505.19;;;11.78;41.46
18819;BME280;9537;45.594;9.294;2023-04-04T01:23:39;99516.25;;;11.82;41.17
18819;BME280;9537;45.594;9.294;2023-04-04T01:24:44;99518.63;;;11.77;41.31
18819;BME280;9537;45.594;9.294;2023-04-04T01:25:49;99513.94;;;11.79;41.31
18819;BME280;9537;45.594;9.294;2023-04-04T01:27:00;99512.75;;;11.81;41.44
18819;BME280;9537;45.594;9.294;2023-04-04T01:28:01;99509.28;;;11.81;40.88
18819;BME280;9537;45.594;9.294;2023-04-04T01:29:03;99510.75;;;11.83;41.08
18819;BME280;9537;45.594;9.294;2023-04-04T01:30:05;99507.28;;;11.83;41.20
18819;BME280;9537;45.594;9.294;2023-04-04T01:31:11;99508.31;;;11.82;40.84
18819;BME280;9537;45.594;9.294;2023-04-04T01:32:18;99512.59;;;11.83;40.97
18819;BME280;9537;45.594;9.294;2023-04-04T01:33:25;99508.03;;;11.77;41.03
18819;BME280;9537;45.594;9.294;2023-04-04T01:34:31;99505.13;;;11.71;40.73
18819;BME280;9537;45.594;9.294;2023-04-04T01:35:45;99512.25;;;11.71;40.59
18819;BME280;9537;45.594;9.294;2023-04-04T01:36:57;99509.13;;;11.67;40.52
18819;BME280;9537;45.594;9.294;2023-04-04T01:38:12;99504.66;;;11.68;40.96
18819;BME280;9537;45.594;9.294;2023-04-04T01:39:21;99507.13;;;11.69;40.88
18819;BME280;9537;45.594;9.294;2023-04-04T01:40:27;99503.81;;;11.67;40.73
18819;BME280;9537;45.594;9.294;2023-04-04T01:41:36;99505.47;;;11.68;40.73
18819;BME280;9537;45.594;9.294;2023-04-04T01:42:38;99502.38;;;11.65;40.73
18819;BME280;9537;45.594;9.294;2023-04-04T01:43:43;99504.19;;;11.64;41.11
18819;BME280;9537;45.594;9.294;2023-04-04T01:44:45;99506.03;;;11.64;40.94
18819;BME280;9537;45.594;9.294;2023-04-04T01:45:47;99506.13;;;11.70;40.72
18819;BME280;9537;45.594;9.294;2023-04-04T01:46:52;99506.28;;;11.69;40.71
18819;BME280;9537;45.594;9.294;2023-04-04T01:47:53;99501.53;;;11.64;41.04
18819;BME280;9537;45.594;9.294;2023-04-04T01:48:56;99506.59;;;11.59;40.52
18819;BME280;9537;45.594;9.294;2023-04-04T01:49:57;99497.63;;;11.60;40.77
18819;BME280;9537;45.594;9.294;2023-04-04T01:51:00;99497.81;;;11.59;40.67
18819;BME280;9537;45.594;9.294;2023-04-04T01:52:02;99504.09;;;11.58;41.04
18819;BME280;9537;45.594;9.294;2023-04-04T01:53:05;99501.47;;;11.58;40.97
18819;BME280;9537;45.594;9.294;2023-04-04T01:54:06;99507.78;;;11.57;40.92
18819;BME280;9537;45.594;9.294;2023-04-04T01:55:08;99503.28;;;11.57;40.69
18819;BME280;9537;45.594;9.294;2023-04-04T01:56:09;99508.94;;;11.54;40.65
18819;BME280;9537;45.594;9.294;2023-04-04T01:57:13;99502.94;;;11.45;40.81
18819;BME280;9537;45.594;9.294;2023-04-04T01:58:14;99503.09;;;11.44;41.02
18819;BME280;9537;45.594;9.294;2023-04-04T01:59:16;99501.47;;;11.43;41.36
18819;BME280;9537;45.594;9.294;2023-04-04T02:00:17;99511.22;;;11.42;41.17
18819;BME280;9537;45.594;9.294;2023-04-04T02:01:19;99512.88;;;11.43;41.20
18819;BME280;9537;45.594;9.294;2023-04-04T02:02:20;99508.38;;;11.44;40.93
18819;BME280;9537;45.594;9.294;2023-04-04T02:03:22;99505.13;;;11.42;40.80
18819;BME280;9537;45.594;9.294;2023-04-04T02:04:23;99508.75;;;11.41;40.95
18819;BME280;9537;45.594;9.294;2023-04-04T02:05:26;99513.41;;;11.39;40.87
18819;BME280;9537;45.594;9.294;2023-04-04T02:06:27;99498.91;;;11.35;41.09
18819;BME280;9537;45.594;9.294;2023-04-04T02:07:29;99509.69;;;11.33;41.21
18819;BME280;9537;45.594;9.294;2023-04-04T02:08:30;99508.22;;;11.31;41.09
18819;BME280;9537;45.594;9.294;2023-04-04T02:09:32;99499.09;;;11.33;41.00
18819;BME280;9537;45.594;9.294;2023-04-04T02:10:33;99500.75;;;11.34;40.89
18819;BME280;9537;45.594;9.294;2023-04-04T02:11:35;99501.19;;;11.38;40.85
18819;BME280;9537;45.594;9.294;2023-04-04T02:12:38;99497.38;;;11.40;40.90
18819;BME280;9537;45.594;9.294;2023-04-04T02:13:40;99501.84;;;11.40;40.84
18819;BME280;9537;45.594;9.294;2023-04-04T02:14:43;99502.38;;;11.35;40.94
18819;BME280;9537;45.594;9.294;2023-04-04T02:15:45;99500.75;;;11.34;41.08
18819;BME280;9537;45.594;9.294;2023-04-04T02:16:46;99502.56;;;11.34;40.96
18819;BME280;9537;45.594;9.294;2023-04-04T02:17:48;99502.19;;;11.37;40.89
18819;BME280;9537;45.594;9.294;2023-04-04T02:18:49;99495.63;;;11.33;40.90
18819;BME280;9537;45.594;9.294;2023-04-04T02:19:52;99499.63;;;11.28;40.93
18819;BME280;9537;45.594;9.294;2023-04-04T02:20:56;99496.53;;;11.25;40.87
18819;BME280;9537;45.594;9.294;2023-04-04T02:21:58;99501.63;;;11.26;40.80
18819;BME280;9537;45.594;9.294;2023-04-04T02:22:59;99500.66;;;11.27;40.76
18819;BME280;9537;45.594;9.294;2023-04-04T02:24:01;99500.38;;;11.22;41.03
18819;BME280;9537;45.594;9.294;2023-04-04T02:25:02;99498.34;;;11.24;41.12
18819;BME280;9537;45.594;9.294;2023-04-04T02:26:05;99493.78;;;11.18;41.26
18819;BME280;9537;45.594;9.294;2023-04-04T02:27:06;99493.78;;;11.18;41.53
18819;BME280;9537;45.594;9.294;2023-04-04T02:28:09;99492.81;;;11.19;41.22
18819;BME280;9537;45.594;9.294;2023-04-04T02:29:11;99495.91;;;11.23;41.25
18819;BME280;9537;45.594;9.294;2023-04-04T02:30:13;99490.41;;;11.24;41.17
18819;BME280;9537;45.594;9.294;2023-04-04T02:31:14;99491.41;;;11.23;41.25
18819;BME280;9537;45.594;9.294;2023-04-04T02:32:16;99486.94;;;11.24;41.14
18819;BME280;9537;45.594;9.294;2023-04-04T02:33:17;99480.41;;;11.20;41.27
18819;BME280;9537;45.594;9.294;2023-04-04T02:34:19;99490.16;;;11.19;41.26
18819;BME280;9537;45.594;9.294;2023-04-04T02:35:20;99490.53;;;11.16;41.38
18819;BME280;9537;45.594;9.294;2023-04-04T02:36:23;99490.53;;;11.16;41.46
18819;BME280;9537;45.594;9.294;2023-04-04T02:37:23;99488.84;;;11.15;41.73
18819;BME280;9537;45.594;9.294;2023-04-04T02:38:25;99500.25;;;11.16;41.73
18819;BME280;9537;45.594;9.294;2023-04-04T02:39:27;99497.44;;;11.17;41.76
18819;BME280;9537;45.594;9.294;2023-04-04T02:40:29;99500.72;;;11.19;41.56
18819;BME280;9537;45.594;9.294;2023-04-04T02:41:30;99500.91;;;11.18;41.49
18819;BME280;9537;45.594;9.294;2023-04-04T02:42:32;99494.44;;;11.20;41.32
18819;BME280;9537;45.594;9.294;2023-04-04T02:43:34;99503.53;;;11.18;41.12
18819;BME280;9537;45.594;9.294;2023-04-04T02:44:36;99492.59;;;11.21;41.23
18819;BME280;9537;45.594;9.294;2023-04-04T02:45:37;99499.91;;;11.19;41.40
18819;BME280;9537;45.594;9.294;2023-04-04T02:46:39;99502.88;;;11.16;41.31
18819;BME280;9537;45.594;9.294;2023-04-04T02:47:41;99499.13;;;11.10;41.60
18819;BME280;9537;45.594;9.294;2023-04-04T02:48:43;99496.50;;;11.10;41.58
18819;BME280;9537;45.594;9.294;2023-04-04T02:49:44;99497.50;;;11.09;41.73
18819;BME280;9537;45.594;9.294;2023-04-04T02:50:46;99496.84;;;11.07;41.74
18819;BME280;9537;45.594;9.294;2023-04-04T02:51:47;99498.06;;;11.04;41.63
18819;BME280;9537;45.594;9.294;2023-04-04T02:52:49;99493.75;;;11.03;41.87
18819;BME280;9537;45.594;9.294;2023-04-04T02:53:50;99491.13;;;11.03;41.78
18819;BME280;9537;45.594;9.294;2023-04-04T02:54:52;99498.75;;;10.98;42.06
18819;BME280;9537;45.594;9.294;2023-04-04T02:55:55;99496.78;;;11.00;41.99
18819;BME280;9537;45.594;9.294;2023-04-04T02:56:57;99503.06;;;10.99;41.89
18819;BME280;9537;45.594;9.294;2023-04-04T02:57:58;99495.13;;;10.99;41.84
18819;BME280;9537;45.594;9.294;2023-04-04T02:59:02;99499.59;;;10.99;42.04
18819;BME280;9537;45.594;9.294;2023-04-04T03:00:05;99496.13;;;10.98;41.94
18819;BME280;9537;45.594;9.294;2023-04-04T03:01:07;99494.47;;;10.97;42.00
18819;BME280;9537;45.594;9.294;2023-04-04T03:02:08;99494.47;;;10.97;42.28
18819;BME280;9537;45.594;9.294;2023-04-04T03:03:10;99497.59;;;11.01;42.21
18819;BME280;9537;45.594;9.294;2023-04-04T03:04:11;99497.41;;;11.02;41.92
18819;BME280;9537;45.594;9.294;2023-04-04T03:05:14;99495.94;;;11.00;41.80
18819;BME280;9537;45.594;9.294;2023-04-04T03:06:16;99496.78;;;11.00;42.07
18819;BME280;9537;45.594;9.294;2023-04-04T03:07:18;99499.06;;;11.03;41.86
18819;BME280;9537;45.594;9.294;2023-04-04T03:08:19;99505.16;;;11.04;41.74
18819;BME280;9537;45.594;9.294;2023-04-04T03:09:21;99495.22;;;11.06;41.55
18819;BME280;9537;45.594;9.294;2023-04-04T03:10:22;99505.16;;;11.04;41.66
18819;BME280;9537;45.594;9.294;2023-04-04T03:11:24;99507.78;;;11.04;41.52
18819;BME280;9537;45.594;9.294;2023-04-04T03:12:25;99502.88;;;11.01;41.84
18819;BME280;9537;45.594;9.294;2023-04-04T03:13:27;99504.88;;;10.99;41.75
18819;BME280;9537;45.594;9.294;2023-04-04T03:14:30;99508.50;;;10.98;41.69
18819;BME280;9537;45.594;9.294;2023-04-04T03:15:32;99504.41;;;10.95;41.91
18819;BME280;9537;45.594;9.294;2023-04-04T03:16:34;99510.25;;;10.91;42.11
18819;BME280;9537;45.594;9.294;2023-04-04T03:17:36;99508.41;;;10.91;42.36
18819;BME280;9537;45.594;9.294;2023-04-04T03:18:38;99505.88;;;10.98;42.05
18819;BME280;9537;45.594;9.294;2023-04-04T03:19:39;99505.88;;;10.98;41.90
18819;BME280;9537;45.594;9.294;2023-04-04T03:20:41;99508.88;;;10.95;41.81
18819;BME280;9537;45.594;9.294;2023-04-04T03:21:43;99500.94;;;10.95;41.99
18819;BME280;9537;45.594;9.294;2023-04-04T03:22:44;99499.47;;;10.92;42.13
18819;BME280;9537;45.594;9.294;2023-04-04T03:23:46;99501.31;;;10.92;42.05
18819;BME280;9537;45.594;9.294;2023-04-04T03:24:47;99505.13;;;10.89;42.16
18819;BME280;9537;45.594;9.294;2023-04-04T03:25:49;99500.66;;;10.90;42.17
18819;BME280;9537;45.594;9.294;2023-04-04T03:26:50;99501.31;;;10.92;41.96
18819;BME280;9537;45.594;9.294;2023-04-04T03:27:52;99502.13;;;10.92;41.74
18819;BME280;9537;45.594;9.294;2023-04-04T03:28:53;99497.41;;;10.88;41.76
18819;BME280;9537;45.594;9.294;2023-04-04T03:29:56;99501.22;;;10.85;41.75
18819;BME280;9537;45.594;9.294;2023-04-04T03:31:02;99499.53;;;10.84;42.06
18819;BME280;9537;45.594;9.294;2023-04-04T03:32:04;99504.00;;;10.83;42.20
18819;BME280;9537;45.594;9.294;2023-04-04T03:33:05;99502.19;;;10.84;42.08
18819;BME280;9537;45.594;9.294;2023-04-04T03:34:07;99502.38;;;10.82;42.08
18819;BME280;9537;45.594;9.294;2023-04-04T03:35:10;99504.22;;;10.82;42.05
18819;BME280;9537;45.594;9.294;2023-04-04T03:36:11;99505.84;;;10.83;42.26
18819;BME280;9537;45.594;9.294;2023-04-04T03:37:13;99510.97;;;10.85;41.93
18819;BME280;9537;45.594;9.294;2023-04-04T03:38:15;99505.69;;;10.85;42.00
18819;BME280;9537;45.594;9.294;2023-04-04T03:39:17;99515.94;;;10.79;42.74
18819;BME280;9537;45.594;9.294;2023-04-04T03:40:18;99513.94;;;10.81;42.54
18819;BME280;9537;45.594;9.294;2023-04-04T03:41:20;99502.53;;;10.81;42.45
18819;BME280;9537;45.594;9.294;2023-04-04T03:42:21;99509.66;;;10.80;42.42
18819;BME280;9537;45.594;9.294;2023-04-04T03:43:23;99511.78;;;10.85;42.36
18819;BME280;9537;45.594;9.294;2023-04-04T03:44:24;99509.50;;;10.82;42.20
18819;BME280;9537;45.594;9.294;2023-04-04T03:45:27;99509.50;;;10.82;42.48
18819;BME280;9537;45.594;9.294;2023-04-04T03:46:28;99513.75;;;10.83;42.39
18819;BME280;9537;45.594;9.294;2023-04-04T03:47:30;99512.13;;;10.82;42.30
18819;BME280;9537;45.594;9.294;2023-04-04T03:48:31;99517.59;;;10.80;42.19
18819;BME280;9537;45.594;9.294;2023-04-04T03:49:33;99518.59;;;10.79;42.59
18819;BME280;9537;45.594;9.294;2023-04-04T03:50:35;99523.06;;;10.79;42.25
18819;BME280;9537;45.594;9.294;2023-04-04T03:51:37;99521.84;;;10.81;42.22
18819;BME280;9537;45.594;9.294;2023-04-04T03:52:38;99521.84;;;10.81;42.46
18819;BME280;9537;45.594;9.294;2023-04-04T03:53:40;99523.16;;;10.86;42.01
18819;BME280;9537;45.594;9.294;2023-04-04T03:54:41;99512.41;;;10.87;41.97
18819;BME280;9537;45.594;9.294;2023-04-04T03:55:43;99512.75;;;10.84;41.80
18819;BME280;9537;45.594;9.294;2023-04-04T03:56:44;99507.66;;;10.82;41.82
18819;BME280;9537;45.594;9.294;2023-04-04T03:57:47;99515.41;;;10.84;41.82
18819;BME280;9537;45.594;9.294;2023-04-04T03:58:48;99509.75;;;10.87;41.31
18819;BME280;9537;45.594;9.294;2023-04-04T03:59:50;99523.31;;;10.84;41.45
18819;BME280;9537;45.594;9.294;2023-04-04T04:00:52;99516.25;;;10.85;41.21
18819;BME280;9537;45.594;9.294;2023-04-04T04:01:54;99514.13;;;10.80;41.56
18819;BME280;9537;45.594;9.294;2023-04-04T04:02:56;99518.41;;;10.81;41.10
18819;BME280;9537;45.594;9.294;2023-04-04T04:03:58;99517.59;;;10.80;41.42
18819;BME280;9537;45.594;9.294;2023-04-04T04:05:00;99511.47;;;10.80;41.29
18819;BME280;9537;45.594;9.294;2023-04-04T04:06:03;99519.94;;;10.75;41.46
18819;BME280;9537;45.594;9.294;2023-04-04T04:07:04;99521.94;;;10.73;41.37
18819;BME280;9537;45.594;9.294;2023-04-04T04:08:06;99514.84;;;10.74;41.54
18819;BME280;9537;45.594;9.294;2023-04-04T04:09:07;99522.94;;;10.72;41.45
18819;BME280;9537;45.594;9.294;2023-04-04T04:10:10;99526.22;;;10.74;41.46
18819;BME280;9537;45.594;9.294;2023-04-04T04:11:13;99522.94;;;10.72;41.43
18819;BME280;9537;45.594;9.294;2023-04-04T04:12:15;99523.94;;;10.71;41.50
18819;BME280;9537;45.594;9.294;2023-04-04T04:13:16;99525.22;;;10.75;41.16
18819;BME280;9537;45.594;9.294;2023-04-04T04:14:18;99525.41;;;10.74;41.26
18819;BME280;9537;45.594;9.294;2023-04-04T04:15:19;99526.94;;;10.68;41.37
18819;BME280;9537;45.594;9.294;2023-04-04T04:16:22;99526.47;;;10.65;41.33
18819;BME280;9537;45.594;9.294;2023-04-04T04:17:23;99526.47;;;10.65;41.33
18819;BME280;9537;45.594;9.294;2023-04-04T04:18:25;99531.56;;;10.66;41.43
18819;BME280;9537;45.594;9.294;2023-04-04T04:19:27;99530.53;;;10.67;41.21
18819;BME280;9537;45.594;9.294;2023-04-04T04:20:29;99528.75;;;10.68;41.15
18819;BME280;9537;45.594;9.294;2023-04-04T04:21:30;99527.28;;;10.65;41.06
18819;BME280;9537;45.594;9.294;2023-04-04T04:22:32;99529.09;;;10.65;41.50
18819;BME280;9537;45.594;9.294;2023-04-04T04:23:33;99529.94;;;10.65;40.99
18819;BME280;9537;45.594;9.294;2023-04-04T04:24:35;99530.75;;;10.66;41.04
18819;BME280;9537;45.594;9.294;2023-04-04T04:25:36;99537.50;;;10.68;40.66
18819;BME280;9537;45.594;9.294;2023-04-04T04:26:38;99536.19;;;10.64;40.80
18819;BME280;9537;45.594;9.294;2023-04-04T04:27:39;99537.03;;;10.65;41.02
18819;BME280;9537;45.594;9.294;2023-04-04T04:28:41;99537.19;;;10.63;41.23
18819;BME280;9537;45.594;9.294;2023-04-04T04:29:42;99543.13;;;10.65;41.13
18819;BME280;9537;45.594;9.294;2023-04-04T04:30:44;99538.81;;;10.64;41.07
18819;BME280;9537;45.594;9.294;2023-04-04T04:31:47;99543.84;;;10.59;41.40
18819;BME280;9537;45.594;9.294;2023-04-04T04:32:49;99544.19;;;10.56;41.30
18819;BME280;9537;45.594;9.294;2023-04-04T04:33:50;99546.19;;;10.54;41.56
18819;BME280;9537;45.594;9.294;2023-04-04T04:34:52;99550.00;;;10.51;41.88
18819;BME280;9537;45.594;9.294;2023-04-04T04:35:58;99547.50;;;10.50;41.25
18819;BME280;9537;45.594;9.294;2023-04-04T04:37:00;99544.50;;;10.53;41.72
18819;BME280;9537;45.594;9.294;2023-04-04T04:38:01;99552.28;;;10.54;41.72
18819;BME280;9537;45.594;9.294;2023-04-04T04:39:03;99545.00;;;10.56;41.74
18819;BME280;9537;45.594;9.294;2023-04-04T04:40:05;99553.41;;;10.60;41.46
18819;BME280;9537;45.594;9.294;2023-04-04T04:41:07;99555.88;;;10.62;41.45
18819;BME280;9537;45.594;9.294;2023-04-04T04:42:08;99556.50;;;10.64;41.45
18819;BME280;9537;45.594;9.294;2023-04-04T04:43:10;99556.69;;;10.62;41.54
18819;BME280;9537;45.594;9.294;2023-04-04T04:44:12;99557.41;;;10.56;41.33
18819;BME280;9537;45.594;9.294;2023-04-04T04:45:14;99560.19;;;10.54;41.84
18819;BME280;9537;45.594;9.294;2023-04-04T04:46:15;99564.66;;;10.54;41.59
18819;BME280;9537;45.594;9.294;2023-04-04T04:47:18;99557.72;;;10.53;41.72
18819;BME280;9537;45.594;9.294;2023-04-04T04:48:19;99566.66;;;10.52;41.88
18819;BME280;9537;45.594;9.294;2023-04-04T04:49:21;99564.00;;;10.52;41.83
18819;BME280;9537;45.594;9.294;2023-04-04T04:50:22;99564.00;;;10.52;41.51
18819;BME280;9537;45.594;9.294;2023-04-04T04:51:24;99562.38;;;10.51;41.46
18819;BME280;9537;45.594;9.294;2023-04-04T04:52:27;99566.84;;;10.50;41.34
18819;BME280;9537;45.594;9.294;2023-04-04T04:53:31;99561.91;;;10.47;41.36
18819;BME280;9537;45.594;9.294;2023-04-04T04:54:32;99565.38;;;10.48;41.58
18819;BME280;9537;45.594;9.294;2023-04-04T04:55:34;99562.53;;;10.49;41.60
18819;BME280;9537;45.594;9.294;2023-04-04T04:56:36;99569.84;;;10.47;41.74
18819;BME280;9537;45.594;9.294;2023-04-04T04:57:38;99565.72;;;10.45;41.38
18819;BME280;9537;45.594;9.294;2023-04-04T04:58:39;99565.72;;;10.45;41.45
18819;BME280;9537;45.594;9.294;2023-04-04T04:59:41;99574.25;;;10.47;41.37
18819;BME280;9537;45.594;9.294;2023-04-04T05:00:42;99574.09;;;10.48;41.30
18819;BME280;9537;45.594;9.294;2023-04-04T05:01:44;99568.63;;;10.50;41.01
18819;BME280;9537;45.594;9.294;2023-04-04T05:02:46;99575.56;;;10.51;40.77
18819;BME280;9537;45.594;9.294;2023-04-04T05:03:49;99574.56;;;10.52;40.96
18819;BME280;9537;45.594;9.294;2023-04-04T05:04:50;99573.75;;;10.51;40.95
18819;BME280;9537;45.594;9.294;2023-04-04T05:05:52;99573.28;;;10.48;41.08
18819;BME280;9537;45.594;9.294;2023-04-04T05:06:53;99582.72;;;10.42;41.21
18819;BME280;9537;45.594;9.294;2023-04-04T05:07:55;99572.97;;;10.43;41.08
18819;BME280;9537;45.594;9.294;2023-04-04T05:08:56;99578.31;;;10.34;41.86
18819;BME280;9537;45.594;9.294;2023-04-04T05:09:58;99578.47;;;10.33;41.63
18819;BME280;9537;45.594;9.294;2023-04-04T05:10:59;99580.81;;;10.28;41.71
18819;BME280;9537;45.594;9.294;2023-04-04T05:12:01;99580.00;;;10.27;42.15
18819;BME280;9537;45.594;9.294;2023-04-04T05:13:03;99585.56;;;10.24;42.13
18819;BME280;9537;45.594;9.294;2023-04-04T05:14:05;99585.09;;;10.29;42.63
18819;BME280;9537;45.594;9.294;2023-04-04T05:15:07;99585.56;;;10.24;42.55
18819;BME280;9537;45.594;9.294;2023-04-04T05:16:09;99592.34;;;10.27;42.64
18819;BME280;9537;45.594;9.294;2023-04-04T05:17:10;99593.00;;;10.29;42.80
18819;BME280;9537;45.594;9.294;2023-04-04T05:18:13;99596.31;;;10.31;42.58
18819;BME280;9537;45.594;9.294;2023-04-04T05:19:14;99592.66;;;10.24;42.87
18819;BME280;9537;45.594;9.294;2023-04-04T05:20:16;99596.13;;;10.24;43.04
18819;BME280;9537;45.594;9.294;2023-04-04T05:21:17;99596.97;;;10.25;42.92
18819;BME280;9537;45.594;9.294;2023-04-04T05:22:19;99601.41;;;10.24;42.81
18819;BME280;9537;45.594;9.294;2023-04-04T05:23:21;99596.13;;;10.24;42.92
18819;BME280;9537;45.594;9.294;2023-04-04T05:24:22;99594.34;;;10.25;42.85
18819;BME280;9537;45.594;9.294;2023-04-04T05:25:24;99596.31;;;10.23;42.99
18819;BME280;9537;45.594;9.294;2023-04-04T05:26:26;99604.22;;;10.23;42.78
18819;BME280;9537;45.594;9.294;2023-04-04T05:27:29;99600.59;;;10.24;42.89
18819;BME280;9537;45.594;9.294;2023-04-04T05:28:30;99598.94;;;10.23;43.08
18819;BME280;9537;45.594;9.294;2023-04-04T05:29:32;99593.19;;;10.27;42.62
18819;BME280;9537;45.594;9.294;2023-04-04T05:30:33;99593.31;;;10.26;42.36
18819;BME280;9537;45.594;9.294;2023-04-04T05:31:35;99597.94;;;10.24;42.39
18819;BME280;9537;45.594;9.294;2023-04-04T05:32:36;99603.56;;;10.21;42.23
18819;BME280;9537;45.594;9.294;2023-04-04T05:33:40;99599.78;;;10.23;42.36